Terminal Aerodrome Forecast
Issued by NWS Pueblo, CO

Home | Current Version | Previous Version | Text Only | Print | Product List | Glossary On
Versions: 1 2 3 4 5 6 7 8 9 10 11 12 13
000
FTUS45 KPUB 250526
TAFALS
TAF
KALS 250526Z 2506/2606 VRB05KT P6SM SKC
     FM252000 24007KT P6SM FEW250
     FM260200 VRB05KT P6SM FEW250=

USA.gov is the U.S. government's official web portal to all federal, state and local government web resources and services.